createdAt,value
2022-10-28T00:01:12.842Z,5.40
2022-10-28T00:03:50.521Z,5.60
2022-10-28T00:06:32.009Z,5.30
2022-10-28T00:08:59.663Z,5.30
2022-10-28T00:11:29.514Z,4.93
2022-10-28T00:13:58.447Z,5.47
2022-10-28T00:16:27.561Z,5.32
2022-10-28T00:18:54.967Z,4.43
2022-10-28T00:21:28.754Z,5.82
2022-10-28T00:23:55.871Z,4.78
2022-10-28T00:26:25.499Z,5.00
2022-10-28T00:29:00.652Z,5.38
2022-10-28T00:31:29.397Z,5.25
2022-10-28T00:33:57.769Z,4.93
2022-10-28T00:36:27.618Z,4.78
2022-10-28T00:38:56.207Z,4.82
2022-10-28T00:41:28.382Z,5.15
2022-10-28T00:43:57.594Z,4.75
2022-10-28T00:46:41.245Z,4.72
2022-10-28T00:49:22.221Z,4.78
2022-10-28T00:51:53.192Z,4.30
2022-10-28T00:54:21.779Z,4.68
2022-10-28T00:56:53.522Z,5.18
2022-10-28T00:59:24.671Z,4.82
2022-10-28T01:01:51.856Z,5.40
2022-10-28T01:04:19.098Z,5.22
2022-10-28T01:06:47.223Z,4.47
2022-10-28T01:09:14.388Z,4.78
2022-10-28T01:11:51.278Z,4.97
2022-10-28T01:14:47.768Z,4.38
2022-10-28T01:17:38.574Z,5.10
2022-10-28T01:20:29.090Z,4.82
2022-10-28T01:23:33.307Z,4.78
2022-10-28T01:26:33.696Z,4.63
2022-10-28T01:29:13.558Z,4.85
2022-10-28T01:31:54.129Z,4.30
2022-10-28T01:34:23.550Z,4.38
2022-10-28T01:37:14.673Z,4.53
2022-10-28T01:39:52.239Z,4.50
2022-10-28T01:42:34.725Z,4.68
2022-10-28T01:45:26.779Z,4.78
2022-10-28T01:48:01.203Z,4.78
2022-10-28T01:50:46.181Z,5.00
2022-10-28T01:53:21.215Z,4.35
2022-10-28T01:55:50.720Z,4.63
2022-10-28T01:58:21.731Z,5.00
2022-10-28T02:00:49.389Z,5.13
2022-10-28T02:03:16.940Z,5.38
2022-10-28T02:05:49.199Z,5.38
2022-10-28T02:08:15.741Z,5.00
2022-10-28T02:11:00.158Z,4.82
2022-10-28T02:14:07.305Z,4.60
2022-10-28T02:16:58.491Z,5.55
2022-10-28T02:19:43.142Z,4.72
2022-10-28T02:22:12.726Z,4.70
2022-10-28T02:24:59.302Z,4.40
2022-10-28T02:28:00.147Z,4.00
2022-10-28T02:30:39.320Z,5.40
2022-10-28T02:33:12.827Z,5.97
2022-10-28T02:35:43.384Z,6.05
2022-10-28T02:38:16.611Z,5.95
2022-10-28T02:40:49.179Z,5.40
2022-10-28T02:43:19.569Z,5.78
2022-10-28T02:45:51.718Z,5.13
2022-10-28T02:48:33.547Z,5.15
2022-10-28T02:51:08.374Z,5.18
2022-10-28T02:53:45.230Z,5.25
2022-10-28T02:56:15.731Z,5.20
2022-10-28T02:58:42.518Z,5.38
2022-10-28T03:01:09.164Z,5.28
2022-10-28T03:03:35.845Z,4.88
2022-10-28T03:06:02.474Z,4.75
2022-10-28T03:08:29.018Z,4.88
2022-10-28T03:10:55.579Z,4.78
2022-10-28T03:13:22.225Z,4.88
2022-10-28T03:15:48.816Z,5.65
2022-10-28T03:18:15.395Z,4.93
2022-10-28T03:20:41.973Z,6.38
2022-10-28T03:23:08.582Z,5.43
2022-10-28T03:25:35.329Z,5.18
2022-10-28T03:28:05.095Z,4.85
2022-10-28T03:30:34.701Z,4.78
2022-10-28T03:33:01.379Z,5.05
2022-10-28T03:35:27.973Z,5.30
2022-10-28T03:37:54.551Z,4.90
2022-10-28T03:40:21.113Z,4.70
2022-10-28T03:42:47.679Z,5.03
2022-10-28T03:45:14.367Z,4.93
2022-10-28T03:47:42.465Z,5.82
2022-10-28T03:50:09.848Z,5.82
2022-10-28T03:52:36.587Z,5.38
2022-10-28T03:55:03.417Z,5.72
2022-10-28T03:57:31.654Z,5.50
2022-10-28T03:59:58.262Z,5.80
2022-10-28T04:02:25.095Z,5.78
2022-10-28T04:04:51.720Z,5.70
2022-10-28T04:07:18.317Z,5.80
2022-10-28T04:09:44.943Z,5.60
2022-10-28T04:12:11.781Z,5.50
2022-10-28T04:14:38.347Z,5.82
2022-10-28T04:17:04.898Z,5.30
2022-10-28T04:19:31.466Z,5.30
2022-10-28T04:21:58.043Z,5.43
2022-10-28T04:24:24.605Z,5.63
2022-10-28T04:26:51.184Z,5.75
2022-10-28T04:29:19.277Z,5.03
2022-10-28T04:31:48.629Z,4.97
2022-10-28T04:34:17.982Z,5.15
2022-10-28T04:36:44.597Z,5.03
2022-10-28T04:39:11.242Z,5.68
2022-10-28T04:41:37.794Z,5.80
2022-10-28T04:44:04.619Z,5.50
2022-10-28T04:46:31.221Z,5.82
2022-10-28T04:48:57.803Z,6.32
2022-10-28T04:51:24.389Z,5.63
2022-10-28T04:53:50.941Z,5.57
2022-10-28T04:56:17.518Z,6.00
2022-10-28T04:58:44.320Z,5.63
2022-10-28T05:01:11.162Z,5.78
2022-10-28T05:03:37.894Z,5.20
2022-10-28T05:06:04.654Z,5.30
2022-10-28T05:08:31.241Z,5.75
2022-10-28T05:10:57.970Z,6.25
2022-10-28T05:13:24.754Z,6.80
2022-10-28T05:15:51.502Z,8.75
2022-10-28T05:18:18.498Z,11.18
2022-10-28T05:20:45.222Z,11.85
2022-10-28T05:23:12.259Z,9.65
2022-10-28T05:25:38.898Z,9.25
2022-10-28T05:28:05.503Z,7.40
2022-10-28T05:30:32.183Z,6.43
2022-10-28T05:33:01.468Z,6.60
2022-10-28T05:35:29.497Z,6.75
2022-10-28T05:37:56.866Z,6.18
2022-10-28T05:40:23.823Z,5.95
2022-10-28T05:42:50.609Z,6.22
2022-10-28T05:45:17.733Z,6.50
2022-10-28T05:47:46.075Z,6.82
2022-10-28T05:50:14.860Z,6.30
2022-10-28T05:52:49.517Z,7.03
2022-10-28T05:55:19.456Z,6.70
2022-10-28T05:57:47.590Z,6.53
2022-10-28T06:00:15.856Z,6.90
2022-10-28T06:02:43.076Z,7.75
2022-10-28T06:05:11.174Z,7.05
2022-10-28T06:07:38.527Z,7.47
2022-10-28T06:10:06.707Z,7.55
2022-10-28T06:12:35.025Z,9.25
2022-10-28T06:15:02.468Z,9.05
2022-10-28T06:17:29.707Z,9.20
2022-10-28T06:19:56.282Z,9.10
2022-10-28T06:22:22.839Z,9.40
2022-10-28T06:24:49.449Z,9.48
2022-10-28T06:27:15.994Z,8.55
2022-10-28T06:29:42.665Z,8.38
2022-10-28T06:32:09.467Z,8.90
2022-10-28T06:34:37.708Z,8.40
2022-10-28T06:37:05.671Z,8.40
2022-10-28T06:39:36.579Z,10.40
2022-10-28T06:42:03.238Z,16.77
2022-10-28T06:44:29.845Z,13.25
2022-10-28T06:46:57.936Z,11.90
2022-10-28T06:49:24.502Z,10.82
2022-10-28T06:51:51.056Z,9.07
2022-10-28T06:54:17.783Z,10.57
2022-10-28T06:56:46.826Z,9.63
2022-10-28T06:59:13.407Z,9.95
2022-10-28T07:01:40.102Z,10.63
2022-10-28T07:04:07.129Z,10.82
2022-10-28T07:06:33.712Z,10.95
2022-10-28T07:09:00.294Z,10.68
2022-10-28T07:11:26.901Z,10.77
2022-10-28T07:13:53.508Z,11.10
2022-10-28T07:16:20.187Z,10.52
2022-10-28T07:18:46.780Z,10.60
2022-10-28T07:21:14.361Z,9.77
2022-10-28T07:23:40.953Z,10.88
2022-10-28T07:26:07.613Z,10.68
2022-10-28T07:28:34.179Z,10.75
2022-10-28T07:31:02.599Z,11.60
2022-10-28T07:33:29.403Z,11.45
2022-10-28T07:35:56.198Z,11.23
2022-10-28T07:38:23.086Z,11.90
2022-10-28T07:40:49.682Z,12.95
2022-10-28T07:43:16.294Z,11.55
2022-10-28T07:45:42.949Z,11.07
2022-10-28T07:48:09.565Z,10.57
2022-10-28T07:50:36.177Z,10.88
2022-10-28T07:53:02.845Z,10.30
2022-10-28T07:55:29.524Z,9.60
2022-10-28T07:57:56.549Z,9.80
2022-10-28T08:00:23.432Z,7.80
2022-10-28T08:02:50.417Z,7.72
2022-10-28T08:05:17.351Z,7.53
2022-10-28T08:07:43.910Z,8.40
2022-10-28T08:10:10.513Z,7.88
2022-10-28T08:12:37.113Z,8.23
2022-10-28T08:15:04.410Z,8.15
2022-10-28T08:17:31.104Z,6.82
2022-10-28T08:19:57.989Z,6.15
2022-10-28T08:22:24.780Z,6.55
2022-10-28T08:24:51.371Z,6.03
2022-10-28T08:27:17.966Z,6.50
2022-10-28T08:29:44.573Z,6.18
2022-10-28T08:32:11.158Z,6.40
2022-10-28T08:34:40.807Z,6.22
2022-10-28T08:37:10.325Z,6.05
2022-10-28T08:39:36.946Z,6.07
2022-10-28T08:42:25.244Z,5.72
2022-10-28T08:45:15.824Z,6.40
2022-10-28T08:47:55.786Z,6.60
2022-10-28T08:50:27.821Z,5.90
2022-10-28T08:53:16.322Z,6.93
2022-10-28T08:55:47.395Z,5.95
2022-10-28T08:58:24.665Z,6.43
2022-10-28T09:00:55.168Z,6.22
2022-10-28T09:03:26.849Z,5.35
2022-10-28T09:05:59.466Z,5.57
2022-10-28T09:08:29.023Z,5.68
2022-10-28T09:11:20.520Z,4.90
2022-10-28T09:14:15.256Z,5.30
2022-10-28T09:17:09.221Z,4.90
2022-10-28T09:19:42.298Z,4.95
2022-10-28T09:22:19.832Z,4.63
2022-10-28T09:25:17.728Z,4.22
2022-10-28T09:27:59.965Z,4.70
2022-10-28T09:32:53.157Z,5.03
2022-10-28T09:35:23.293Z,4.28
2022-10-28T09:37:56.571Z,4.43
2022-10-28T09:40:29.975Z,4.13
2022-10-28T09:43:08.014Z,4.13
2022-10-28T09:45:40.207Z,4.32
2022-10-28T09:48:23.939Z,4.32
2022-10-28T09:50:54.124Z,4.97
2022-10-28T09:53:52.033Z,4.97
2022-10-28T09:56:18.665Z,4.28
2022-10-28T09:58:47.245Z,4.40
2022-10-28T10:01:17.071Z,3.88
2022-10-28T10:03:45.618Z,4.30
2022-10-28T10:06:15.572Z,4.22
2022-10-28T10:08:42.881Z,5.32
2022-10-28T10:11:24.780Z,4.20
2022-10-28T10:16:29.856Z,3.88
2022-10-28T10:18:59.565Z,3.90
2022-10-28T10:21:45.298Z,4.47
2022-10-28T10:24:35.013Z,4.75
2022-10-28T10:27:10.705Z,3.97
2022-10-28T10:29:44.651Z,4.13
2022-10-28T10:32:26.115Z,3.67
2022-10-28T10:35:28.630Z,4.22
2022-10-28T10:38:00.997Z,4.40
2022-10-28T10:40:53.750Z,3.92
2022-10-28T10:43:23.593Z,4.28
2022-10-28T10:45:53.043Z,3.75
2022-10-28T10:48:19.617Z,4.15
2022-10-28T10:50:48.800Z,3.80
2022-10-28T10:53:35.349Z,3.53
2022-10-28T10:56:08.355Z,3.50
2022-10-28T10:58:47.152Z,3.72
2022-10-28T11:01:19.962Z,3.60
2022-10-28T11:04:01.374Z,3.28
2022-10-28T11:06:31.112Z,3.50
2022-10-28T11:09:01.310Z,3.20
2022-10-28T11:11:40.814Z,3.43
2022-10-28T11:14:24.393Z,3.38
2022-10-28T11:16:53.860Z,3.42
2022-10-28T11:19:24.522Z,3.22
2022-10-28T11:22:29.268Z,3.40
2022-10-28T11:25:11.300Z,3.25
2022-10-28T11:28:12.176Z,3.05
2022-10-28T11:30:47.980Z,2.83
2022-10-28T11:33:43.741Z,2.95
2022-10-28T11:36:28.103Z,2.95
2022-10-28T11:39:17.395Z,2.80
2022-10-28T11:41:56.403Z,3.13
2022-10-28T11:44:43.451Z,2.70
2022-10-28T11:47:33.473Z,2.90
2022-10-28T11:50:18.236Z,2.70
2022-10-28T11:53:05.207Z,2.72
2022-10-28T11:56:00.306Z,2.60
2022-10-28T11:58:31.356Z,2.95
2022-10-28T12:01:15.727Z,2.80
2022-10-28T12:03:51.378Z,2.38
2022-10-28T12:07:07.012Z,2.78
2022-10-28T12:09:45.384Z,2.60
2022-10-28T12:12:36.298Z,2.40
2022-10-28T12:15:32.695Z,2.30
2022-10-28T12:18:07.432Z,1.98
2022-10-28T12:20:37.762Z,2.45
2022-10-28T12:23:12.914Z,2.38
2022-10-28T12:25:43.025Z,2.35
2022-10-28T12:28:33.867Z,2.80
2022-10-28T12:31:02.826Z,2.50
2022-10-28T12:33:39.424Z,2.10
2022-10-28T12:36:08.772Z,2.47
2022-10-28T12:38:54.032Z,2.00
2022-10-28T12:41:25.746Z,2.25
2022-10-28T12:44:10.242Z,2.15
2022-10-28T12:46:57.434Z,2.30
2022-10-28T12:49:45.024Z,2.20
2022-10-28T12:52:49.256Z,1.90
2022-10-28T12:55:42.519Z,1.95
2022-10-28T12:58:21.032Z,2.20
2022-10-28T13:00:54.427Z,1.90
2022-10-28T13:03:21.137Z,2.42
2022-10-28T13:06:15.995Z,2.10
2022-10-28T13:09:09.600Z,2.25
2022-10-28T13:11:57.853Z,2.00
2022-10-28T13:14:42.324Z,2.53
2022-10-28T13:17:43.280Z,1.98
2022-10-28T13:20:24.927Z,2.13
2022-10-28T13:22:56.893Z,1.95
2022-10-28T13:25:35.420Z,1.95
2022-10-28T13:28:02.955Z,2.20
2022-10-28T13:30:35.070Z,1.98
2022-10-28T13:33:06.638Z,1.70
2022-10-28T13:35:33.440Z,2.35
2022-10-28T13:38:01.851Z,1.90
2022-10-28T13:40:31.168Z,1.60
2022-10-28T13:42:59.377Z,1.88
2022-10-28T13:45:45.284Z,1.88
2022-10-28T13:48:30.201Z,2.05
2022-10-28T13:51:09.141Z,2.25
2022-10-28T13:53:47.829Z,2.38
2022-10-28T13:56:37.685Z,1.80
2022-10-28T13:59:13.333Z,1.85
2022-10-28T14:05:10.644Z,2.38
2022-10-28T14:08:00.577Z,2.20
2022-10-28T14:10:27.216Z,3.13
2022-10-28T14:13:01.264Z,2.30
2022-10-28T14:15:34.044Z,2.30
2022-10-28T14:18:29.704Z,1.90
2022-10-28T14:21:00.817Z,1.70
2022-10-28T14:23:27.623Z,1.83
2022-10-28T14:25:54.641Z,1.80
2022-10-28T14:28:27.084Z,1.85
2022-10-28T14:31:20.817Z,2.25
2022-10-28T14:33:53.528Z,2.03
2022-10-28T14:36:20.125Z,1.92
2022-10-28T14:39:11.624Z,1.92
2022-10-28T14:41:59.511Z,1.90
2022-10-28T14:44:47.777Z,2.20
2022-10-28T14:47:42.321Z,2.67
2022-10-28T14:50:39.412Z,3.38
2022-10-28T14:53:13.724Z,2.92
2022-10-28T14:55:44.557Z,2.40
2022-10-28T14:58:13.961Z,2.20
2022-10-28T15:00:52.238Z,2.30
2022-10-28T15:03:18.959Z,2.13
2022-10-28T15:05:45.569Z,2.30
2022-10-28T15:08:12.287Z,2.83
2022-10-28T15:10:40.567Z,2.88
2022-10-28T15:13:15.983Z,2.67
2022-10-28T15:15:52.524Z,3.00
2022-10-28T15:18:26.273Z,2.97
2022-10-28T15:21:10.502Z,2.80
2022-10-28T15:23:37.083Z,2.88
2022-10-28T15:26:11.887Z,4.47
2022-10-28T15:28:40.276Z,4.45
2022-10-28T15:31:07.340Z,6.47
2022-10-28T15:33:41.619Z,5.57
2022-10-28T15:36:26.237Z,4.45
2022-10-28T15:39:07.360Z,4.47
2022-10-28T15:41:45.997Z,4.70
2022-10-28T15:44:26.569Z,4.40
2022-10-28T15:46:54.066Z,4.53
2022-10-28T15:49:38.695Z,5.03
2022-10-28T15:52:33.181Z,4.25
2022-10-28T15:55:02.321Z,4.38
2022-10-28T15:57:47.676Z,4.95
2022-10-28T16:00:26.396Z,5.40
2022-10-28T16:03:00.079Z,4.82
2022-10-28T16:05:33.205Z,5.75
2022-10-28T16:08:02.255Z,4.65
2022-10-28T16:10:34.425Z,5.57
2022-10-28T16:13:06.351Z,7.53
2022-10-28T16:15:35.569Z,7.93
2022-10-28T16:18:02.209Z,7.20
2022-10-28T16:20:30.365Z,7.18
2022-10-28T16:22:58.512Z,7.07
2022-10-28T16:25:25.118Z,6.38
2022-10-28T16:27:52.200Z,6.07
2022-10-28T16:30:19.085Z,6.63
2022-10-28T16:32:48.840Z,7.43
2022-10-28T16:35:18.644Z,7.18
2022-10-28T16:37:47.382Z,7.38
2022-10-28T16:40:45.404Z,7.13
2022-10-28T16:43:03.643Z,6.60
2022-10-28T16:45:30.192Z,7.28
2022-10-28T16:47:56.958Z,7.78
2022-10-28T16:50:23.720Z,7.97
2022-10-28T16:52:50.296Z,7.20
2022-10-28T16:55:17.291Z,6.43
2022-10-28T16:57:43.919Z,6.43
2022-10-28T17:00:13.779Z,6.28
2022-10-28T17:02:40.684Z,6.30
2022-10-28T17:05:19.702Z,5.82
2022-10-28T17:07:46.323Z,6.07
2022-10-28T17:10:13.728Z,5.72
2022-10-28T17:12:40.388Z,5.18
2022-10-28T17:15:07.712Z,5.90
2022-10-28T17:17:34.499Z,5.65
2022-10-28T17:20:01.125Z,5.32
2022-10-28T17:22:28.057Z,5.53
2022-10-28T17:24:54.715Z,5.10
2022-10-28T17:27:21.540Z,6.25
2022-10-28T17:29:48.161Z,5.70
2022-10-28T17:32:14.942Z,5.13
2022-10-28T17:34:41.575Z,5.72
2022-10-28T17:37:08.300Z,5.20
2022-10-28T17:39:34.940Z,5.25
2022-10-28T17:42:01.625Z,4.90
2022-10-28T17:44:28.214Z,5.07
2022-10-28T17:46:54.783Z,5.13
2022-10-28T17:49:21.371Z,5.05
2022-10-28T17:51:47.942Z,4.68
2022-10-28T17:54:14.639Z,4.78
2022-10-28T17:56:42.281Z,4.65
2022-10-28T17:59:09.452Z,4.32
2022-10-28T18:01:36.933Z,4.70
2022-10-28T18:04:04.620Z,4.63
2022-10-28T18:06:31.255Z,4.70
2022-10-28T18:08:58.513Z,4.55
2022-10-28T18:11:26.507Z,5.05
2022-10-28T18:13:55.196Z,4.95
2022-10-28T18:16:24.369Z,5.25
2022-10-28T18:18:51.584Z,5.40
2022-10-28T18:21:18.656Z,5.50
2022-10-28T18:23:45.372Z,4.90
2022-10-28T18:26:14.048Z,4.93
2022-10-28T18:28:42.620Z,5.35
2022-10-28T18:31:14.095Z,5.80
2022-10-28T18:33:42.110Z,5.90
2022-10-28T18:36:14.653Z,6.75
2022-10-28T18:38:41.755Z,6.07
2022-10-28T18:41:16.780Z,7.25
2022-10-28T18:43:43.855Z,8.10
2022-10-28T18:46:11.098Z,7.75
2022-10-28T18:48:38.347Z,6.80
2022-10-28T18:51:09.427Z,7.05
2022-10-28T18:53:38.323Z,6.75
2022-10-28T18:56:11.790Z,6.68
2022-10-28T18:58:38.458Z,6.95
2022-10-28T19:01:06.300Z,8.40
2022-10-28T19:03:33.598Z,7.82
2022-10-28T19:06:08.765Z,8.00
2022-10-28T19:08:35.467Z,7.55
2022-10-28T19:11:03.815Z,6.82
2022-10-28T19:13:35.454Z,7.78
2022-10-28T19:16:02.657Z,6.03
2022-10-28T19:18:30.378Z,7.18
2022-10-28T19:21:22.169Z,7.60
2022-10-28T19:23:49.184Z,6.32
2022-10-28T19:26:16.044Z,6.28
2022-10-28T19:28:44.752Z,6.07
2022-10-28T19:31:14.577Z,6.22
2022-10-28T19:33:43.342Z,6.25
2022-10-28T19:36:12.901Z,6.15
2022-10-28T19:38:41.019Z,6.47
2022-10-28T19:41:10.761Z,6.72
2022-10-28T19:43:37.719Z,6.43
2022-10-28T19:46:10.980Z,6.07
2022-10-28T19:48:40.027Z,6.70
2022-10-28T19:51:08.232Z,6.22
2022-10-28T19:53:35.055Z,7.35
2022-10-28T19:56:03.468Z,7.35
2022-10-28T19:58:31.080Z,6.68
2022-10-28T20:01:04.978Z,6.78
2022-10-28T20:03:34.638Z,6.35
2022-10-28T20:06:05.407Z,6.93
2022-10-28T20:08:37.098Z,6.70
2022-10-28T20:11:07.200Z,7.20
2022-10-28T20:13:35.181Z,7.28
2022-10-28T20:16:08.456Z,7.18
2022-10-28T20:18:35.270Z,7.10
2022-10-28T20:21:04.794Z,6.95
2022-10-28T20:23:32.376Z,7.22
2022-10-28T20:25:59.920Z,7.18
2022-10-28T20:28:26.629Z,7.32
2022-10-28T20:31:04.925Z,6.35
2022-10-28T20:33:31.745Z,7.57
2022-10-28T20:35:58.578Z,7.15
2022-10-28T20:38:25.868Z,6.28
2022-10-28T20:40:56.719Z,6.72
2022-10-28T20:43:25.129Z,6.78
2022-10-28T20:45:59.444Z,6.65
2022-10-28T20:48:28.056Z,8.18
2022-10-28T20:50:57.412Z,7.93
2022-10-28T20:53:25.674Z,7.78
2022-10-28T20:55:54.400Z,7.70
2022-10-28T20:58:23.890Z,7.97
2022-10-28T21:00:53.056Z,8.20
2022-10-28T21:03:21.246Z,8.20
2022-10-28T21:05:48.528Z,9.50
2022-10-28T21:08:15.137Z,10.02
2022-10-28T21:10:41.693Z,11.02
2022-10-28T21:13:08.509Z,13.07
2022-10-28T21:15:37.102Z,17.83
2022-10-28T21:18:05.198Z,18.13
2022-10-28T21:20:32.477Z,31.35
2022-10-28T21:23:00.354Z,31.30
2022-10-28T21:25:27.645Z,26.83
2022-10-28T21:27:57.711Z,19.95
2022-10-28T21:30:26.516Z,15.18
2022-10-28T21:32:53.765Z,14.20
2022-10-28T21:35:20.963Z,13.65
2022-10-28T21:37:47.813Z,10.65
2022-10-28T21:40:14.760Z,10.20
2022-10-28T21:42:41.539Z,11.52
2022-10-28T21:45:08.660Z,11.15
2022-10-28T21:47:35.632Z,11.25
2022-10-28T21:50:02.503Z,9.93
2022-10-28T21:52:29.152Z,9.65
2022-10-28T21:54:55.819Z,8.82
2022-10-28T21:57:28.673Z,12.45
2022-10-28T22:02:22.126Z,13.05
2022-10-28T22:04:49.181Z,13.60
2022-10-28T22:07:18.891Z,12.95
2022-10-28T22:09:45.829Z,11.15
2022-10-28T22:12:12.455Z,12.15
2022-10-28T22:14:39.769Z,11.02
2022-10-28T22:17:06.781Z,10.20
2022-10-28T22:19:33.597Z,9.38
2022-10-28T22:22:00.154Z,9.25
2022-10-28T22:24:26.926Z,9.05
2022-10-28T22:26:53.831Z,8.77
2022-10-28T22:29:20.492Z,8.68
2022-10-28T22:31:47.727Z,8.32
2022-10-28T22:34:14.300Z,8.23
2022-10-28T22:36:43.163Z,7.80
2022-10-28T22:39:09.726Z,9.32
2022-10-28T22:41:36.623Z,9.55
2022-10-28T22:44:04.640Z,9.65
2022-10-28T22:46:33.711Z,9.27
2022-10-28T22:49:00.453Z,8.48
2022-10-28T22:51:27.120Z,8.02
2022-10-28T22:53:53.773Z,8.57
2022-10-28T22:56:22.490Z,8.82
2022-10-28T22:58:53.843Z,8.25
2022-10-28T23:01:21.509Z,8.18
2022-10-28T23:03:50.299Z,8.45
2022-10-28T23:06:21.932Z,8.10
2022-10-28T23:08:48.939Z,8.07
2022-10-28T23:11:17.362Z,7.72
2022-10-28T23:13:44.060Z,8.10
2022-10-28T23:16:15.645Z,8.02
2022-10-28T23:18:43.496Z,7.57
2022-10-28T23:21:14.104Z,7.97
2022-10-28T23:23:41.524Z,8.15
2022-10-28T23:26:10.599Z,8.15
2022-10-28T23:28:37.217Z,7.85
2022-10-28T23:31:05.344Z,8.02
2022-10-28T23:33:33.188Z,8.45
2022-10-28T23:36:02.086Z,8.98
2022-10-28T23:38:28.665Z,9.50
2022-10-28T23:41:02.039Z,9.63
2022-10-28T23:43:30.031Z,10.25
2022-10-28T23:45:57.572Z,9.77
2022-10-28T23:48:25.456Z,10.85
2022-10-28T23:50:52.569Z,10.60
2022-10-28T23:53:19.931Z,11.73
2022-10-28T23:55:48.361Z,12.77
2022-10-28T23:58:16.649Z,12.77
